Time;durP1;ratioP1;P1;durP2;ratioP2;P2;SDS_P1;SDS_P2;PMS_P1;PMS_P2;Temp;Humidity;BMP_temperature;BMP_pressure;BME280_temperature;BME280_humidity;BME280_pressure;Samples;Min_cycle;Max_cycle;Signal;HPM_P1;HPM_P2
2021/09/15 00:01:27;;;;;;;5.85;5.22;;;19.70;61.60;;;;;;5051132;28;20091;-72
2021/09/15 00:03:53;;;;;;;6.85;5.07;;;19.70;62.00;;;;;;5051622;28;20024;-72
2021/09/15 00:06:19;;;;;;;6.25;5.07;;;19.70;61.90;;;;;;5051556;28;20044;-73
2021/09/15 00:08:45;;;;;;;5.68;4.82;;;19.70;62.00;;;;;;5051487;28;20056;-72
2021/09/15 00:11:12;;;;;;;5.65;4.75;;;19.60;61.80;;;;;;5050043;28;20025;-71
2021/09/15 00:13:39;;;;;;;8.30;5.15;;;19.60;61.80;;;;;;5051368;28;20031;-72
2021/09/15 00:16:05;;;;;;;6.95;4.75;;;19.60;62.00;;;;;;5051460;28;20055;-71
2021/09/15 00:18:31;;;;;;;5.78;5.22;;;19.60;62.20;;;;;;5051349;28;20100;-72
2021/09/15 00:20:57;;;;;;;5.78;4.82;;;19.60;62.40;;;;;;5051236;28;20112;-72
2021/09/15 00:23:23;;;;;;;5.82;4.70;;;19.60;62.20;;;;;;5051171;28;20032;-71
2021/09/15 00:25:48;;;;;;;7.43;4.93;;;19.60;62.20;;;;;;5051384;28;20054;-72
2021/09/15 00:28:14;;;;;;;9.15;4.75;;;19.60;62.20;;;;;;5051319;28;20025;-71
2021/09/15 00:30:40;;;;;;;6.35;5.60;;;19.50;62.50;;;;;;5051361;28;20021;-72
2021/09/15 00:33:06;;;;;;;9.90;5.43;;;19.50;62.60;;;;;;5051023;28;20040;-72
2021/09/15 00:35:32;;;;;;;6.07;4.53;;;19.50;62.40;;;;;;5051230;28;20021;-71
2021/09/15 00:37:58;;;;;;;5.47;4.80;;;19.50;62.50;;;;;;5051245;28;20502;-72
2021/09/15 00:40:24;;;;;;;9.38;5.32;;;19.50;62.50;;;;;;5051144;28;20131;-72
2021/09/15 00:42:49;;;;;;;7.40;6.13;;;19.50;62.70;;;;;;5049978;28;20125;-71
2021/09/15 00:45:15;;;;;;;6.43;5.68;;;19.50;62.90;;;;;;5051107;28;20024;-71
2021/09/15 00:47:41;;;;;;;8.30;5.38;;;19.40;62.90;;;;;;5052027;28;20079;-72
2021/09/15 00:50:07;;;;;;;6.00;5.30;;;19.40;62.90;;;;;;5054958;28;20027;-72
2021/09/15 00:52:33;;;;;;;9.63;6.03;;;19.40;63.10;;;;;;5053963;28;20452;-72
2021/09/15 00:54:59;;;;;;;7.55;5.95;;;19.40;64.20;;;;;;5054892;28;20109;-71
2021/09/15 00:57:24;;;;;;;33.22;6.65;;;19.40;64.30;;;;;;5055017;28;20032;-72
2021/09/15 00:59:50;;;;;;;11.68;6.30;;;19.40;64.10;;;;;;5054801;28;20498;-71
2021/09/15 01:02:16;;;;;;;6.75;5.70;;;19.30;64.00;;;;;;5054150;28;20049;-71
2021/09/15 01:04:44;;;;;;;6.60;5.53;;;19.30;64.00;;;;;;5056840;28;20090;-72
2021/09/15 01:07:10;;;;;;;8.25;5.97;;;19.30;64.00;;;;;;5065115;28;20013;-72
2021/09/15 01:09:37;;;;;;;7.43;5.55;;;19.30;63.80;;;;;;5054443;28;20031;-71
2021/09/15 01:12:03;;;;;;;9.73;5.50;;;19.30;63.60;;;;;;5052815;28;20033;-71
2021/09/15 01:14:29;;;;;;;7.07;5.30;;;19.30;63.60;;;;;;5054284;28;20029;-71
2021/09/15 01:16:58;;;;;;;6.00;5.40;;;19.30;63.60;;;;;;5053984;28;20035;-72
2021/09/15 01:19:25;;;;;;;11.32;5.72;;;19.30;63.70;;;;;;5054462;28;20083;-72
2021/09/15 01:21:52;;;;;;;7.35;6.20;;;19.20;63.60;;;;;;5053882;28;20035;-71
2021/09/15 01:24:18;;;;;;;10.45;5.80;;;19.20;63.60;;;;;;5059832;28;20560;-72
2021/09/15 01:26:44;;;;;;;6.22;5.35;;;19.20;63.70;;;;;;5053212;28;20025;-71
2021/09/15 01:29:24;;;;;;;7.40;5.32;;;19.20;63.70;;;;;;5052918;28;20025;-71
2021/09/15 01:32:03;;;;;;;6.32;5.50;;;19.10;64.00;;;;;;5053983;28;20025;-71
2021/09/15 01:34:37;;;;;;;10.23;5.30;;;19.10;63.90;;;;;;5054086;28;20032;-72
2021/09/15 01:37:04;;;;;;;6.20;5.35;;;19.10;63.80;;;;;;5054069;28;20028;-72
2021/09/15 01:39:30;;;;;;;8.10;6.65;;;19.10;63.70;;;;;;5052645;28;20168;-71
2021/09/15 01:42:01;;;;;;;6.15;5.47;;;19.10;63.80;;;;;;5052281;28;20029;-72
2021/09/15 01:44:33;;;;;;;6.13;5.47;;;19.00;63.90;;;;;;5053681;28;20024;-72
2021/09/15 01:47:00;;;;;;;7.20;5.18;;;19.00;64.20;;;;;;5053700;28;20025;-71
2021/09/15 01:49:31;;;;;;;7.28;5.53;;;19.00;64.10;;;;;;5053675;28;20067;-72
2021/09/15 01:51:58;;;;;;;7.07;5.93;;;18.90;64.20;;;;;;5053847;28;20029;-72
2021/09/15 01:54:24;;;;;;;8.48;6.35;;;19.00;64.20;;;;;;5053496;28;20037;-71
2021/09/15 01:56:50;;;;;;;8.70;7.07;;;18.90;64.30;;;;;;5053686;28;20370;-72
2021/09/15 01:59:16;;;;;;;6.38;5.75;;;18.90;64.50;;;;;;5052084;28;20119;-73
2021/09/15 02:01:42;;;;;;;7.93;6.22;;;18.90;64.50;;;;;;5053174;28;20451;-72
2021/09/15 02:04:08;;;;;;;10.23;6.40;;;18.90;64.60;;;;;;5053467;28;20021;-71
2021/09/15 02:06:34;;;;;;;10.80;5.53;;;18.90;64.60;;;;;;5053513;28;20387;-72
2021/09/15 02:09:00;;;;;;;11.07;5.68;;;18.80;64.50;;;;;;5053306;28;20059;-72
2021/09/15 02:11:27;;;;;;;8.32;6.75;;;18.80;64.50;;;;;;5052026;28;20514;-72
2021/09/15 02:13:53;;;;;;;7.28;6.15;;;18.80;64.80;;;;;;5052049;28;20025;-72
2021/09/15 02:16:20;;;;;;;12.35;6.22;;;18.80;64.80;;;;;;5053210;28;20029;-71
2021/09/15 02:18:46;;;;;;;7.78;5.90;;;18.80;65.00;;;;;;5053026;28;20181;-72
2021/09/15 02:21:12;;;;;;;7.35;5.82;;;18.80;64.90;;;;;;5052893;28;20119;-72
2021/09/15 02:23:37;;;;;;;7.85;6.32;;;18.80;65.00;;;;;;5053090;28;20048;-72
2021/09/15 02:26:03;;;;;;;7.18;6.45;;;18.70;65.00;;;;;;5052994;28;20075;-71
2021/09/15 02:28:29;;;;;;;8.77;6.95;;;18.70;65.10;;;;;;5052910;28;20027;-72
2021/09/15 02:30:55;;;;;;;9.73;6.88;;;18.70;65.20;;;;;;5052891;28;20100;-72
2021/09/15 02:33:21;;;;;;;7.50;6.03;;;18.70;65.20;;;;;;5052845;28;20061;-71
2021/09/15 02:35:46;;;;;;;17.17;6.72;;;18.70;65.30;;;;;;5051657;28;20037;-71
2021/09/15 02:38:12;;;;;;;11.45;7.07;;;18.70;65.20;;;;;;5052697;28;20053;-71
2021/09/15 02:40:38;;;;;;;10.93;7.10;;;18.70;65.70;;;;;;5051524;28;20115;-72
2021/09/15 02:43:04;;;;;;;15.77;7.90;;;18.70;65.50;;;;;;5052663;28;20025;-72
2021/09/15 02:45:29;;;;;;;13.00;7.50;;;18.70;66.40;;;;;;5057713;28;20060;-71
2021/09/15 02:47:55;;;;;;;9.23;7.15;;;18.70;65.60;;;;;;5069799;28;20115;-72
2021/09/15 02:50:21;;;;;;;10.95;7.18;;;18.70;65.50;;;;;;5052612;28;20497;-71
2021/09/15 02:52:47;;;;;;;9.10;6.60;;;18.70;65.50;;;;;;5052468;28;20021;-72
2021/09/15 02:55:13;;;;;;;8.27;6.95;;;18.60;65.50;;;;;;5052330;28;20025;-72
2021/09/15 02:57:38;;;;;;;8.80;5.85;;;18.60;65.60;;;;;;5052466;28;20139;-72
2021/09/15 03:00:05;;;;;;;8.82;6.15;;;18.60;65.50;;;;;;5050909;28;20120;-72
2021/09/15 03:02:31;;;;;;;8.50;7.15;;;18.60;65.60;;;;;;5051868;28;20044;-72
2021/09/15 03:04:57;;;;;;;9.57;6.88;;;18.60;65.70;;;;;;5052305;28;20024;-72
2021/09/15 03:07:23;;;;;;;8.85;7.32;;;18.60;65.80;;;;;;5050758;28;20044;-72
2021/09/15 03:09:48;;;;;;;9.43;7.68;;;18.60;65.80;;;;;;5051899;28;20032;-71
2021/09/15 03:12:14;;;;;;;11.55;7.60;;;18.60;66.00;;;;;;5052099;28;20031;-72
2021/09/15 03:14:40;;;;;;;9.93;7.78;;;18.60;66.10;;;;;;5051981;28;20029;-71
2021/09/15 03:17:06;;;;;;;13.45;7.07;;;18.60;67.00;;;;;;5051901;28;20051;-72
2021/09/15 03:19:32;;;;;;;8.40;7.20;;;18.60;66.10;;;;;;5051843;28;20058;-72
2021/09/15 03:21:58;;;;;;;14.73;8.00;;;18.60;66.30;;;;;;5051672;28;20025;-71
2021/09/15 03:24:24;;;;;;;11.52;7.03;;;18.50;66.00;;;;;;5073172;28;20024;-72
2021/09/15 03:26:50;;;;;;;10.18;7.45;;;18.50;66.00;;;;;;5069586;28;20544;-72
2021/09/15 03:29:16;;;;;;;10.23;8.15;;;18.50;66.00;;;;;;5055860;28;20036;-71
2021/09/15 03:31:42;;;;;;;7.72;6.60;;;18.60;66.30;;;;;;5049175;28;20025;-71
2021/09/15 03:34:08;;;;;;;9.65;7.72;;;18.60;66.20;;;;;;5050482;28;20067;-72
2021/09/15 03:36:34;;;;;;;9.10;7.70;;;18.50;66.30;;;;;;5051560;28;20505;-72
2021/09/15 03:39:00;;;;;;;10.27;7.97;;;18.50;66.30;;;;;;5051654;28;20386;-72
2021/09/15 03:41:26;;;;;;;8.50;7.13;;;18.60;66.30;;;;;;5050098;28;20029;-71
2021/09/15 03:43:52;;;;;;;13.32;7.57;;;18.50;66.30;;;;;;5051782;28;20036;-71
2021/09/15 03:46:18;;;;;;;9.38;7.20;;;18.50;66.30;;;;;;5050393;28;20023;-72
2021/09/15 03:48:43;;;;;;;9.25;7.32;;;18.50;66.30;;;;;;5051577;28;20032;-72
2021/09/15 03:51:09;;;;;;;7.82;6.88;;;18.50;66.40;;;;;;5051301;28;20048;-71
2021/09/15 03:53:35;;;;;;;9.77;7.43;;;18.50;66.40;;;;;;5051450;28;20025;-72
2021/09/15 03:56:02;;;;;;;9.23;7.82;;;18.50;66.30;;;;;;5051512;28;20057;-72
2021/09/15 03:58:28;;;;;;;10.00;8.02;;;18.40;66.30;;;;;;5049998;28;20522;-72
2021/09/15 04:00:53;;;;;;;9.75;7.25;;;18.40;66.40;;;;;;5051099;28;20043;-72
2021/09/15 04:03:19;;;;;;;7.90;6.88;;;18.40;66.50;;;;;;5051325;28;20025;-72
2021/09/15 04:05:45;;;;;;;12.45;8.93;;;18.40;66.50;;;;;;5051394;28;20029;-72
2021/09/15 04:08:11;;;;;;;10.05;8.48;;;18.40;66.80;;;;;;5050998;28;20050;-73
2021/09/15 04:10:37;;;;;;;18.13;9.60;;;18.40;66.70;;;;;;5051131;28;20029;-72
2021/09/15 04:13:03;;;;;;;17.23;8.60;;;18.40;66.70;;;;;;5051143;28;20359;-72
2021/09/15 04:15:28;;;;;;;14.20;8.43;;;18.40;66.80;;;;;;5049838;28;20512;-72
2021/09/15 04:17:54;;;;;;;10.60;8.80;;;18.40;67.00;;;;;;5050999;28;20124;-72
2021/09/15 04:20:21;;;;;;;10.90;8.18;;;18.40;67.10;;;;;;5051263;28;20025;-72
2021/09/15 04:22:48;;;;;;;10.68;8.63;;;18.40;67.00;;;;;;5052018;28;20063;-71
2021/09/15 04:33:27;;;;;;;;;;;18.40;66.80;;;;;;5055606;28;20108;-73
2021/09/15 04:35:53;;;;;;;12.35;8.23;;;18.40;66.40;;;;;;5054944;28;20007;-73
2021/09/15 04:38:18;;;;;;;13.55;9.68;;;18.40;66.80;;;;;;5055387;28;20049;-73
2021/09/15 04:40:44;;;;;;;15.30;8.65;;;18.40;67.00;;;;;;5054755;28;20023;-73
2021/09/15 04:43:10;;;;;;;10.93;8.05;;;18.40;67.30;;;;;;5070748;28;20488;-72
2021/09/15 04:45:37;;;;;;;11.43;9.55;;;18.40;67.30;;;;;;5074691;28;20476;-73
2021/09/15 04:48:04;;;;;;;9.07;7.35;;;18.40;67.50;;;;;;5071708;28;20462;-73
2021/09/15 04:50:30;;;;;;;10.50;8.38;;;18.40;67.50;;;;;;5054682;28;20104;-72
2021/09/15 04:52:56;;;;;;;13.90;9.18;;;18.30;67.50;;;;;;5054557;28;20230;-73
2021/09/15 04:55:22;;;;;;;15.43;10.15;;;18.40;67.80;;;;;;5054633;28;20526;-73
2021/09/15 04:57:48;;;;;;;13.32;9.77;;;18.40;67.90;;;;;;5054495;28;20367;-73
2021/09/15 05:00:14;;;;;;;12.95;8.73;;;18.40;68.10;;;;;;5054125;28;20025;-72
2021/09/15 05:02:40;;;;;;;14.50;9.48;;;18.40;67.90;;;;;;5054242;28;20459;-73
2021/09/15 05:05:07;;;;;;;9.88;7.90;;;18.40;67.90;;;;;;5054468;28;20052;-73
2021/09/15 05:07:33;;;;;;;9.45;7.50;;;18.40;67.70;;;;;;5054345;28;20491;-73
2021/09/15 05:09:58;;;;;;;8.82;7.30;;;18.40;67.70;;;;;;5054349;28;20040;-73
2021/09/15 05:12:24;;;;;;;10.90;8.52;;;18.50;67.70;;;;;;5054310;28;20032;-73
2021/09/15 05:14:50;;;;;;;13.10;8.60;;;18.50;67.80;;;;;;5054368;28;20025;-73
2021/09/15 05:17:16;;;;;;;11.95;8.75;;;18.50;67.90;;;;;;5054250;28;20082;-73
2021/09/15 05:19:42;;;;;;;10.02;8.23;;;18.60;67.90;;;;;;5053584;28;20025;-72
2021/09/15 05:22:08;;;;;;;10.32;8.50;;;18.60;67.80;;;;;;5053872;28;20029;-74
2021/09/15 05:24:33;;;;;;;11.32;7.82;;;18.70;67.90;;;;;;5064192;28;20058;-73
2021/09/15 05:26:59;;;;;;;8.90;7.25;;;18.80;67.90;;;;;;5073420;28;20025;-72
2021/09/15 05:29:25;;;;;;;8.80;7.20;;;18.80;67.70;;;;;;5059664;28;20029;-73
2021/09/15 05:31:51;;;;;;;10.32;8.07;;;18.90;67.80;;;;;;5055873;28;20032;-73
2021/09/15 05:34:16;;;;;;;12.57;8.45;;;19.00;67.80;;;;;;5071421;28;20440;-73
2021/09/15 05:36:42;;;;;;;10.60;8.00;;;19.10;67.80;;;;;;5073957;28;20040;-73
2021/09/15 05:39:08;;;;;;;12.23;9.85;;;19.10;67.70;;;;;;5054968;28;20037;-72
2021/09/15 05:41:34;;;;;;;13.48;8.88;;;19.20;67.60;;;;;;5071016;28;20040;-73
2021/09/15 05:43:59;;;;;;;14.40;9.07;;;19.30;67.60;;;;;;5073597;28;20034;-73
2021/09/15 05:46:25;;;;;;;15.45;9.73;;;19.30;67.40;;;;;;5073662;28;20087;-73
2021/09/15 05:48:51;;;;;;;19.10;9.45;;;19.40;67.30;;;;;;5064790;28;20033;-73
2021/09/15 05:51:17;;;;;;;13.48;9.50;;;19.50;67.20;;;;;;5055608;28;20045;-72
2021/09/15 05:53:43;;;;;;;20.40;11.25;;;19.60;67.00;;;;;;5053388;28;20048;-73
2021/09/15 05:56:09;;;;;;;20.98;11.32;;;19.70;67.00;;;;;;5054255;28;20078;-73
2021/09/15 05:58:35;;;;;;;17.90;10.40;;;19.70;66.80;;;;;;5073182;28;20029;-72
2021/09/15 06:01:00;;;;;;;16.73;10.27;;;19.80;66.70;;;;;;5073099;28;20084;-72
2021/09/15 06:03:27;;;;;;;15.52;9.90;;;19.80;66.50;;;;;;5071195;28;20075;-73
2021/09/15 06:05:52;;;;;;;14.20;9.13;;;19.90;66.40;;;;;;5072820;28;20017;-73
2021/09/15 06:08:18;;;;;;;13.30;9.18;;;20.00;66.30;;;;;;5072212;28;20462;-73
2021/09/15 06:10:44;;;;;;;15.38;9.35;;;20.10;66.20;;;;;;5073099;28;20103;-73
2021/09/15 06:13:10;;;;;;;17.80;9.27;;;20.10;66.00;;;;;;5073195;28;20086;-73
2021/09/15 06:15:36;;;;;;;15.60;8.88;;;20.20;65.90;;;;;;5062983;28;20104;-73
2021/09/15 06:18:02;;;;;;;11.60;9.13;;;20.30;65.70;;;;;;5051622;28;20111;-72
2021/09/15 06:20:28;;;;;;;12.30;9.25;;;20.30;65.40;;;;;;5051670;28;20063;-73
2021/09/15 06:22:53;;;;;;;11.65;8.88;;;20.40;65.30;;;;;;5064919;28;20454;-73
2021/09/15 06:25:22;;;;;;;13.15;8.75;;;20.50;65.10;;;;;;5072917;28;20020;-73
2021/09/15 06:27:49;;;;;;;16.70;9.35;;;20.60;65.00;;;;;;5071450;28;20025;-73
2021/09/15 06:30:15;;;;;;;17.58;9.27;;;20.60;64.80;;;;;;5072152;28;20425;-73
2021/09/15 06:32:41;;;;;;;16.20;10.23;;;20.70;64.60;;;;;;5073784;28;20039;-73
2021/09/15 06:35:08;;;;;;;17.50;9.13;;;20.80;64.40;;;;;;5073860;28;20035;-72
2021/09/15 06:37:33;;;;;;;19.05;9.73;;;20.80;64.10;;;;;;5059240;28;20028;-72
2021/09/15 06:39:59;;;;;;;12.57;9.65;;;20.80;63.80;;;;;;5053846;28;20029;-73
2021/09/15 06:42:25;;;;;;;13.68;8.77;;;20.90;63.80;;;;;;5053793;28;20029;-73
2021/09/15 06:44:50;;;;;;;14.25;9.75;;;20.90;63.80;;;;;;5053316;28;20466;-73
2021/09/15 06:47:16;;;;;;;18.67;8.90;;;21.00;63.70;;;;;;5053366;28;20021;-73
2021/09/15 06:49:42;;;;;;;11.60;8.35;;;21.00;63.60;;;;;;5053566;28;20017;-73
2021/09/15 06:52:08;;;;;;;13.30;8.63;;;21.10;63.50;;;;;;5053752;28;20016;-73
2021/09/15 06:54:34;;;;;;;14.57;10.13;;;21.10;63.40;;;;;;5052270;28;20047;-73
2021/09/15 06:56:59;;;;;;;13.82;10.07;;;21.10;63.20;;;;;;5053561;28;20052;-72
2021/09/15 06:59:25;;;;;;;11.55;8.90;;;21.20;63.20;;;;;;5053394;28;20096;-73
2021/09/15 07:01:51;;;;;;;17.30;10.00;;;21.20;63.10;;;;;;5051914;28;20128;-74
2021/09/15 07:04:17;;;;;;;14.93;9.27;;;21.30;63.00;;;;;;5053342;28;20020;-73
2021/09/15 07:06:42;;;;;;;13.70;8.90;;;21.40;62.80;;;;;;5053261;28;20025;-73
2021/09/15 07:09:09;;;;;;;10.07;8.70;;;21.50;62.80;;;;;;5053226;28;20017;-74
2021/09/15 07:11:36;;;;;;;14.57;8.52;;;21.60;62.80;;;;;;5051981;28;20163;-73
2021/09/15 07:14:04;;;;;;;13.68;9.82;;;21.70;62.70;;;;;;5053240;28;20028;-74
2021/09/15 07:16:31;;;;;;;13.57;9.57;;;21.70;62.30;;;;;;5051832;28;20402;-73
2021/09/15 07:18:57;;;;;;;24.63;10.32;;;21.80;62.20;;;;;;5053067;28;20024;-73
2021/09/15 07:21:23;;;;;;;27.52;11.90;;;21.90;62.10;;;;;;5051742;28;20368;-73
2021/09/15 07:23:49;;;;;;;24.65;11.43;;;22.00;61.80;;;;;;5051709;28;20027;-73
2021/09/15 07:26:15;;;;;;;17.52;10.15;;;22.00;61.40;;;;;;5052979;28;20009;-73
2021/09/15 07:28:40;;;;;;;20.48;10.32;;;22.10;61.20;;;;;;5051607;28;20111;-73
2021/09/15 07:31:06;;;;;;;18.50;10.93;;;22.10;61.20;;;;;;5051637;28;20120;-73
2021/09/15 07:33:32;;;;;;;20.65;12.07;;;22.20;61.10;;;;;;5052687;28;20036;-73
2021/09/15 07:36:03;;;;;;;17.55;12.15;;;22.20;60.70;;;;;;5052738;28;20029;-73
2021/09/15 07:38:30;;;;;;;20.80;13.52;;;22.30;60.60;;;;;;5052806;28;20374;-72
2021/09/15 07:40:56;;;;;;;22.73;14.18;;;22.40;60.70;;;;;;5059554;28;20028;-72
2021/09/15 07:43:22;;;;;;;24.83;13.43;;;22.40;60.40;;;;;;5055574;28;20078;-73
2021/09/15 07:45:48;;;;;;;23.35;13.90;;;22.40;60.50;;;;;;5060816;28;20135;-73
2021/09/15 07:48:13;;;;;;;26.38;14.00;;;22.50;60.30;;;;;;5071007;28;20021;-73
2021/09/15 07:50:39;;;;;;;24.90;14.13;;;22.60;60.30;;;;;;5072467;28;20016;-72
2021/09/15 07:53:05;;;;;;;28.30;15.50;;;22.60;60.10;;;;;;5063273;28;20024;-72
2021/09/15 07:55:31;;;;;;;32.22;15.68;;;22.70;60.00;;;;;;5054918;28;20031;-72
2021/09/15 07:57:57;;;;;;;26.88;14.40;;;22.80;59.70;;;;;;5056625;28;20044;-72
2021/09/15 08:00:22;;;;;;;28.85;15.30;;;22.90;59.70;;;;;;5050596;28;20021;-73
2021/09/15 08:02:48;;;;;;;30.45;14.77;;;22.90;59.40;;;;;;5052338;28;20108;-73
2021/09/15 08:05:15;;;;;;;24.25;14.13;;;23.00;59.20;;;;;;5059488;28;20438;-73
2021/09/15 08:07:41;;;;;;;23.15;13.45;;;23.10;59.10;;;;;;5069842;28;20024;-73
2021/09/15 08:10:07;;;;;;;21.77;13.65;;;23.20;59.00;;;;;;5072258;28;20385;-73
2021/09/15 08:12:33;;;;;;;22.27;11.68;;;23.30;58.60;;;;;;5072149;28;20119;-73
2021/09/15 08:14:59;;;;;;;24.55;11.15;;;23.30;58.00;;;;;;5072336;28;20507;-72
2021/09/15 08:17:25;;;;;;;25.85;12.00;;;23.40;58.00;;;;;;5072332;28;20098;-72
2021/09/15 08:19:51;;;;;;;23.63;12.60;;;23.40;57.40;;;;;;5072229;28;20478;-72
2021/09/15 08:22:16;;;;;;;20.58;12.45;;;23.50;57.50;;;;;;5072003;28;20385;-74
2021/09/15 08:24:42;;;;;;;23.48;11.52;;;23.60;57.20;;;;;;5053643;28;20017;-73
2021/09/15 08:27:08;;;;;;;13.82;9.52;;;23.60;57.40;;;;;;5051981;28;20013;-73
2021/09/15 08:29:36;;;;;;;14.00;9.05;;;23.70;57.30;;;;;;5057376;28;20482;-74
2021/09/15 08:32:02;;;;;;;17.15;9.65;;;23.80;57.10;;;;;;5051646;28;20017;-73
2021/09/15 08:34:28;;;;;;;13.05;8.98;;;23.80;56.80;;;;;;5051219;28;20475;-73
2021/09/15 08:36:54;;;;;;;15.85;9.75;;;23.90;57.00;;;;;;5051157;28;20103;-73
2021/09/15 08:39:21;;;;;;;12.50;8.32;;;24.00;56.30;;;;;;5049791;28;20033;-73
2021/09/15 08:41:48;;;;;;;13.02;8.02;;;24.00;56.30;;;;;;5066066;28;20025;-73
2021/09/15 08:44:15;;;;;;;12.90;8.98;;;24.10;56.20;;;;;;5068049;28;20028;-73
2021/09/15 08:46:42;;;;;;;14.90;8.02;;;24.10;56.10;;;;;;5054746;28;20429;-73
2021/09/15 08:49:10;;;;;;;16.30;8.88;;;24.20;55.90;;;;;;5051109;28;20017;-74
2021/09/15 08:51:36;;;;;;;18.55;8.45;;;24.30;55.20;;;;;;5051023;28;20044;-73
2021/09/15 08:54:02;;;;;;;18.55;9.27;;;24.30;55.60;;;;;;5051024;28;20025;-73
2021/09/15 08:56:28;;;;;;;12.30;8.70;;;24.30;55.30;;;;;;5050880;28;20078;-74
2021/09/15 08:58:54;;;;;;;12.00;8.02;;;24.40;55.20;;;;;;5050783;28;20025;-72
2021/09/15 09:01:25;;;;;;;11.13;7.45;;;24.50;55.20;;;;;;5050248;28;20037;-72
2021/09/15 09:03:58;;;;;;;14.98;8.07;;;24.50;55.10;;;;;;5050886;28;20047;-74
2021/09/15 09:06:31;;;;;;;18.80;9.27;;;24.50;55.30;;;;;;5051068;28;20017;-73
2021/09/15 09:08:57;;;;;;;11.95;8.05;;;24.60;55.10;;;;;;5052605;28;20096;-73
2021/09/15 09:11:25;;;;;;;14.38;8.25;;;24.60;55.00;;;;;;5054471;28;20021;-73
2021/09/15 09:13:57;;;;;;;12.77;9.23;;;24.70;54.80;;;;;;5054473;28;20367;-73
2021/09/15 09:16:48;;;;;;;17.85;8.02;;;24.80;54.70;;;;;;5054358;28;20413;-73
2021/09/15 09:19:19;;;;;;;11.75;8.20;;;24.80;54.60;;;;;;5054587;28;20036;-72
2021/09/15 09:21:53;;;;;;;10.80;8.15;;;24.90;55.40;;;;;;5054329;28;20029;-72
2021/09/15 09:24:21;;;;;;;13.18;8.23;;;24.90;54.20;;;;;;5054194;28;20083;-72
2021/09/15 09:27:01;;;;;;;22.98;10.20;;;25.00;54.30;;;;;;5054452;28;20066;-72
2021/09/15 09:29:34;;;;;;;15.15;8.93;;;25.00;54.40;;;;;;5054990;28;20020;-72
2021/09/15 09:32:15;;;;;;;16.98;8.27;;;25.10;54.20;;;;;;5053031;28;20029;-73
2021/09/15 09:34:49;;;;;;;16.63;8.73;;;25.20;54.20;;;;;;5065485;28;20067;-74
2021/09/15 09:37:18;;;;;;;10.75;7.80;;;25.20;53.60;;;;;;5072910;28;20029;-73
2021/09/15 09:39:57;;;;;;;20.55;9.45;;;25.30;53.60;;;;;;5073162;28;20025;-72
2021/09/15 09:42:22;;;;;;;15.48;7.75;;;25.30;53.10;;;;;;5066868;28;20017;-73
2021/09/15 09:45:12;;;;;;;27.25;10.23;;;25.40;53.40;;;;;;5053667;28;20033;-72
2021/09/15 09:47:39;;;;;;;13.57;8.95;;;25.40;53.10;;;;;;5053904;28;20354;-73
2021/09/15 09:50:10;;;;;;;13.80;8.27;;;25.50;53.10;;;;;;5052433;28;20100;-74
2021/09/15 09:52:51;;;;;;;12.57;8.18;;;25.60;53.20;;;;;;5053722;28;20032;-73
2021/09/15 09:55:19;;;;;;;13.82;7.38;;;25.70;53.10;;;;;;5053723;28;20033;-73
2021/09/15 09:57:51;;;;;;;10.80;7.22;;;25.80;53.00;;;;;;5053631;28;20104;-73
2021/09/15 10:00:18;;;;;;;20.98;9.57;;;25.90;52.80;;;;;;5053595;28;20029;-73
2021/09/15 10:02:44;;;;;;;21.55;9.98;;;26.00;52.50;;;;;;5053466;28;20045;-73
2021/09/15 10:05:10;;;;;;;23.40;8.60;;;26.10;52.20;;;;;;5053422;28;20393;-73
2021/09/15 10:07:37;;;;;;;13.65;8.52;;;26.20;52.00;;;;;;5065048;28;20108;-73
2021/09/15 10:10:04;;;;;;;11.98;8.05;;;26.40;51.40;;;;;;5072087;28;20028;-74
2021/09/15 10:12:31;;;;;;;23.88;8.50;;;26.50;51.60;;;;;;5073334;28;20056;-73
2021/09/15 10:15:01;;;;;;;15.63;7.18;;;26.70;51.70;;;;;;5073265;28;20032;-73
2021/09/15 10:17:30;;;;;;;13.60;7.63;;;26.90;51.60;;;;;;5072490;28;20389;-73
2021/09/15 10:19:57;;;;;;;12.20;7.75;;;27.10;51.10;;;;;;5073039;28;20024;-73
2021/09/15 10:22:31;;;;;;;13.65;8.27;;;27.30;50.40;;;;;;5073100;28;20039;-73
2021/09/15 10:24:58;;;;;;;21.38;9.55;;;27.40;49.50;;;;;;5066559;28;20085;-73
2021/09/15 10:27:29;;;;;;;12.32;7.65;;;27.60;49.50;;;;;;5068525;28;20451;-73
2021/09/15 10:30:06;;;;;;;15.65;7.53;;;27.80;49.10;;;;;;5066399;28;20421;-72
2021/09/15 10:32:34;;;;;;;10.43;6.75;;;27.90;48.30;;;;;;5052986;28;20029;-73
2021/09/15 10:35:01;;;;;;;9.70;6.78;;;28.10;48.60;;;;;;5052538;28;20049;-73
2021/09/15 10:37:30;;;;;;;11.13;7.10;;;28.30;48.50;;;;;;5063876;28;20111;-73
2021/09/15 10:40:08;;;;;;;17.13;7.53;;;28.50;48.70;;;;;;5062307;28;20029;-73
2021/09/15 10:45:17;;;;;;;16.15;7.53;;;28.80;47.30;;;;;;5059652;28;20419;-73
2021/09/15 10:47:45;;;;;;;9.75;7.63;;;29.00;47.40;;;;;;5054712;28;20037;-73
2021/09/15 10:50:33;;;;;;;13.05;9.15;;;29.20;46.50;;;;;;5052680;28;20102;-73
2021/09/15 10:53:07;;;;;;;13.32;7.65;;;29.40;46.20;;;;;;5052549;28;20025;-73
2021/09/15 10:55:49;;;;;;;12.07;7.93;;;29.60;45.90;;;;;;5052654;28;20112;-74
2021/09/15 10:58:21;;;;;;;10.20;6.22;;;29.70;45.00;;;;;;5052646;28;20355;-72
2021/09/15 11:00:59;;;;;;;13.25;7.85;;;29.90;44.80;;;;;;5052423;28;20072;-72
2021/09/15 11:03:30;;;;;;;18.40;8.13;;;30.00;43.90;;;;;;5066016;28;20509;-72
2021/09/15 11:06:06;;;;;;;12.40;7.88;;;30.00;43.70;;;;;;5072540;28;20032;-73
2021/09/15 11:08:34;;;;;;;13.73;8.48;;;30.20;43.30;;;;;;5072576;28;20047;-73
2021/09/15 11:11:06;;;;;;;13.77;7.93;;;30.20;42.30;;;;;;5072444;28;20052;-72
2021/09/15 11:13:34;;;;;;;18.40;8.45;;;30.20;43.20;;;;;;5060906;28;20163;-72
2021/09/15 11:16:32;;;;;;;14.63;8.38;;;30.20;42.60;;;;;;5050997;28;20028;-72
2021/09/15 11:18:58;;;;;;;12.68;7.90;;;30.20;43.30;;;;;;5057137;28;20052;-72
2021/09/15 11:21:25;;;;;;;14.63;7.95;;;30.30;42.90;;;;;;5052026;28;20491;-74
2021/09/15 11:23:54;;;;;;;13.85;7.28;;;30.30;42.50;;;;;;5053280;28;20024;-72
2021/09/15 11:26:34;;;;;;;15.23;8.82;;;30.30;42.80;;;;;;5054438;28;20028;-73
2021/09/15 11:29:00;;;;;;;13.05;7.07;;;30.30;42.70;;;;;;5052054;28;20052;-76
2021/09/15 11:31:26;;;;;;;14.75;7.75;;;30.40;42.50;;;;;;5053465;28;20124;-76
2021/09/15 11:33:52;;;;;;;12.18;7.78;;;30.50;42.60;;;;;;5060306;28;20036;-72
2021/09/15 11:36:17;;;;;;;12.70;7.35;;;30.60;42.00;;;;;;5052036;28;20615;-71
2021/09/15 11:38:43;;;;;;;12.75;7.13;;;30.60;42.20;;;;;;5053016;28;20111;-73
2021/09/15 11:41:14;;;;;;;15.30;9.15;;;30.60;42.20;;;;;;5052664;28;20068;-70
2021/09/15 11:43:43;;;;;;;15.27;9.32;;;30.70;42.00;;;;;;5052412;28;20021;-68
2021/09/15 11:46:09;;;;;;;17.23;9.93;;;30.80;42.00;;;;;;5051090;28;20088;-69
2021/09/15 11:48:35;;;;;;;15.15;9.50;;;30.90;41.50;;;;;;5060961;28;20423;-68
2021/09/15 11:51:22;;;;;;;24.08;15.50;;;30.90;41.30;;;;;;5071149;28;20155;-70
2021/09/15 11:54:00;;;;;;;24.05;13.43;;;31.10;42.20;;;;;;5054442;28;20059;-70
2021/09/15 11:56:36;;;;;;;10.93;7.22;;;31.20;41.30;;;;;;5049836;28;20049;-72
2021/09/15 11:59:02;;;;;;;16.17;7.43;;;31.40;41.20;;;;;;5051019;28;20031;-71
2021/09/15 12:01:32;;;;;;;14.23;7.55;;;31.50;40.90;;;;;;5050611;28;20163;-71
2021/09/15 12:04:05;;;;;;;11.60;7.38;;;31.60;40.40;;;;;;5050617;28;20077;-69
2021/09/15 12:06:31;;;;;;;15.55;7.28;;;31.70;40.40;;;;;;5049529;28;20175;-78
2021/09/15 12:08:58;;;;;;;14.73;9.30;;;31.80;40.20;;;;;;5050868;28;20029;-71
2021/09/15 12:11:34;;;;;;;29.08;8.82;;;31.90;39.00;;;;;;5050355;28;20416;-72
2021/09/15 12:14:01;;;;;;;18.08;9.13;;;31.90;39.20;;;;;;5054863;28;20334;-72
2021/09/15 12:16:32;;;;;;;17.20;8.00;;;31.90;39.70;;;;;;5050584;28;20057;-73
2021/09/15 12:18:59;;;;;;;16.83;9.05;;;31.90;39.70;;;;;;5050612;28;20036;-72
2021/09/15 12:21:26;;;;;;;12.25;8.25;;;32.00;39.70;;;;;;5050953;28;20060;-72
2021/09/15 12:24:04;;;;;;;19.35;9.88;;;32.10;39.00;;;;;;5050036;28;20432;-73
2021/09/15 12:26:30;;;;;;;12.18;8.38;;;32.20;38.80;;;;;;5051472;28;20466;-72
2021/09/15 12:29:08;;;;;;;10.23;7.70;;;32.20;38.40;;;;;;5054767;28;20016;-72
2021/09/15 12:31:53;;;;;;;10.70;7.95;;;32.30;38.40;;;;;;5071121;28;20128;-73
2021/09/15 12:34:51;;;;;;;10.27;8.25;;;32.20;38.60;;;;;;5069652;28;20048;-73
2021/09/15 12:37:20;;;;;;;14.82;7.68;;;32.30;38.80;;;;;;5065415;28;20698;-73
2021/09/15 12:39:49;;;;;;;14.70;10.15;;;32.30;38.50;;;;;;5068875;28;20483;-72
2021/09/15 12:42:18;;;;;;;15.32;8.73;;;32.40;37.70;;;;;;5052080;28;20078;-73
2021/09/15 12:44:44;;;;;;;11.05;8.18;;;32.40;37.90;;;;;;5069740;28;20071;-72
2021/09/15 12:47:10;;;;;;;12.75;8.32;;;32.50;37.60;;;;;;5072795;28;20501;-72
2021/09/15 12:49:40;;;;;;;10.07;7.10;;;32.50;37.40;;;;;;5055804;28;20028;-72
2021/09/15 12:52:15;;;;;;;6.80;5.45;;;32.60;37.40;;;;;;5072573;28;20051;-73